sensor_id;sensor_type;location;lat;lon;timestamp;P1;durP1;ratioP1;P2;durP2;ratioP2
64684;SDS011;51109;47.414;18.954;2023-03-01T00:02:12;6.25;;;3.60;;
64684;SDS011;51109;47.414;18.954;2023-03-01T00:04:38;8.25;;;4.55;;
64684;SDS011;51109;47.414;18.954;2023-03-01T00:07:04;10.10;;;3.70;;
64684;SDS011;51109;47.414;18.954;2023-03-01T00:09:30;8.30;;;3.90;;
64684;SDS011;51109;47.414;18.954;2023-03-01T00:11:56;11.93;;;4.15;;
64684;SDS011;51109;47.414;18.954;2023-03-01T00:14:22;7.10;;;4.00;;
64684;SDS011;51109;47.414;18.954;2023-03-01T00:16:48;10.05;;;4.13;;
64684;SDS011;51109;47.414;18.954;2023-03-01T00:19:16;7.32;;;3.75;;
64684;SDS011;51109;47.414;18.954;2023-03-01T00:21:43;8.73;;;4.72;;
64684;SDS011;51109;47.414;18.954;2023-03-01T00:24:09;8.38;;;3.45;;
64684;SDS011;51109;47.414;18.954;2023-03-01T00:26:35;7.32;;;3.70;;
64684;SDS011;51109;47.414;18.954;2023-03-01T00:29:02;7.18;;;3.33;;
64684;SDS011;51109;47.414;18.954;2023-03-01T00:31:29;8.05;;;4.07;;
64684;SDS011;51109;47.414;18.954;2023-03-01T00:33:57;9.48;;;3.78;;
64684;SDS011;51109;47.414;18.954;2023-03-01T00:36:25;7.70;;;3.50;;
64684;SDS011;51109;47.414;18.954;2023-03-01T00:38:56;9.68;;;4.57;;
64684;SDS011;51109;47.414;18.954;2023-03-01T00:41:22;7.53;;;3.72;;
64684;SDS011;51109;47.414;18.954;2023-03-01T00:43:51;6.60;;;3.75;;
64684;SDS011;51109;47.414;18.954;2023-03-01T00:46:19;5.72;;;3.58;;
64684;SDS011;51109;47.414;18.954;2023-03-01T00:48:47;7.75;;;4.13;;
64684;SDS011;51109;47.414;18.954;2023-03-01T00:51:17;12.23;;;4.25;;
64684;SDS011;51109;47.414;18.954;2023-03-01T00:53:45;9.45;;;4.22;;
64684;SDS011;51109;47.414;18.954;2023-03-01T00:56:13;7.80;;;3.75;;
64684;SDS011;51109;47.414;18.954;2023-03-01T00:58:40;8.15;;;3.78;;
64684;SDS011;51109;47.414;18.954;2023-03-01T01:01:14;7.32;;;3.42;;
64684;SDS011;51109;47.414;18.954;2023-03-01T01:03:51;8.68;;;3.88;;
64684;SDS011;51109;47.414;18.954;2023-03-01T01:06:26;9.63;;;3.88;;
64684;SDS011;51109;47.414;18.954;2023-03-01T01:08:54;6.53;;;3.92;;
64684;SDS011;51109;47.414;18.954;2023-03-01T01:11:21;10.55;;;4.47;;
64684;SDS011;51109;47.414;18.954;2023-03-01T01:13:49;8.43;;;3.67;;
64684;SDS011;51109;47.414;18.954;2023-03-01T01:16:16;7.80;;;3.65;;
64684;SDS011;51109;47.414;18.954;2023-03-01T01:18:46;7.03;;;3.70;;
64684;SDS011;51109;47.414;18.954;2023-03-01T01:21:13;10.68;;;4.18;;
64684;SDS011;51109;47.414;18.954;2023-03-01T01:23:42;10.25;;;5.22;;
64684;SDS011;51109;47.414;18.954;2023-03-01T01:26:10;10.05;;;3.80;;
64684;SDS011;51109;47.414;18.954;2023-03-01T01:28:44;11.85;;;4.80;;
64684;SDS011;51109;47.414;18.954;2023-03-01T01:31:11;9.77;;;4.78;;
64684;SDS011;51109;47.414;18.954;2023-03-01T01:33:37;7.60;;;3.97;;
64684;SDS011;51109;47.414;18.954;2023-03-01T01:36:04;6.97;;;3.95;;
64684;SDS011;51109;47.414;18.954;2023-03-01T01:38:34;6.30;;;2.97;;
64684;SDS011;51109;47.414;18.954;2023-03-01T01:41:00;8.65;;;3.63;;
64684;SDS011;51109;47.414;18.954;2023-03-01T01:43:31;5.07;;;4.05;;
64684;SDS011;51109;47.414;18.954;2023-03-01T01:49:03;7.97;;;3.60;;
64684;SDS011;51109;47.414;18.954;2023-03-01T01:51:44;11.23;;;4.10;;
64684;SDS011;51109;47.414;18.954;2023-03-01T01:54:36;10.02;;;4.85;;
64684;SDS011;51109;47.414;18.954;2023-03-01T01:57:27;9.25;;;3.75;;
64684;SDS011;51109;47.414;18.954;2023-03-01T02:00:04;10.80;;;4.55;;
64684;SDS011;51109;47.414;18.954;2023-03-01T02:02:28;9.70;;;4.35;;
64684;SDS011;51109;47.414;18.954;2023-03-01T02:04:58;10.13;;;4.43;;
64684;SDS011;51109;47.414;18.954;2023-03-01T02:07:35;9.98;;;3.33;;
64684;SDS011;51109;47.414;18.954;2023-03-01T02:10:04;11.73;;;4.53;;
64684;SDS011;51109;47.414;18.954;2023-03-01T02:12:33;11.43;;;4.47;;
64684;SDS011;51109;47.414;18.954;2023-03-01T02:30:46;14.80;;;5.15;;
64684;SDS011;51109;47.414;18.954;2023-03-01T02:33:34;9.52;;;4.03;;
64684;SDS011;51109;47.414;18.954;2023-03-01T02:36:36;10.13;;;4.03;;
64684;SDS011;51109;47.414;18.954;2023-03-01T02:38:57;7.32;;;3.67;;
64684;SDS011;51109;47.414;18.954;2023-03-01T02:41:26;8.02;;;4.05;;
64684;SDS011;51109;47.414;18.954;2023-03-01T02:43:56;8.70;;;3.45;;
64684;SDS011;51109;47.414;18.954;2023-03-01T02:46:26;6.25;;;4.13;;
64684;SDS011;51109;47.414;18.954;2023-03-01T02:48:53;9.73;;;4.63;;
64684;SDS011;51109;47.414;18.954;2023-03-01T02:54:17;9.10;;;3.88;;
64684;SDS011;51109;47.414;18.954;2023-03-01T02:56:51;7.50;;;3.85;;
64684;SDS011;51109;47.414;18.954;2023-03-01T02:59:19;13.77;;;5.65;;
64684;SDS011;51109;47.414;18.954;2023-03-01T03:01:47;10.35;;;4.85;;
64684;SDS011;51109;47.414;18.954;2023-03-01T03:04:14;9.07;;;4.97;;
64684;SDS011;51109;47.414;18.954;2023-03-01T03:06:43;12.55;;;4.75;;
64684;SDS011;51109;47.414;18.954;2023-03-01T03:09:10;8.85;;;4.10;;
64684;SDS011;51109;47.414;18.954;2023-03-01T03:11:36;6.18;;;3.75;;
64684;SDS011;51109;47.414;18.954;2023-03-01T03:14:04;5.22;;;3.55;;
64684;SDS011;51109;47.414;18.954;2023-03-01T03:16:31;11.10;;;4.03;;
64684;SDS011;51109;47.414;18.954;2023-03-01T03:18:57;13.65;;;4.25;;
64684;SDS011;51109;47.414;18.954;2023-03-01T03:21:33;7.22;;;4.35;;
64684;SDS011;51109;47.414;18.954;2023-03-01T03:23:59;7.95;;;4.68;;
64684;SDS011;51109;47.414;18.954;2023-03-01T03:26:25;6.35;;;3.67;;
64684;SDS011;51109;47.414;18.954;2023-03-01T03:28:51;10.25;;;4.22;;
64684;SDS011;51109;47.414;18.954;2023-03-01T03:31:17;9.82;;;3.78;;
64684;SDS011;51109;47.414;18.954;2023-03-01T03:33:43;12.35;;;3.88;;
64684;SDS011;51109;47.414;18.954;2023-03-01T03:36:09;9.02;;;4.40;;
64684;SDS011;51109;47.414;18.954;2023-03-01T03:38:43;8.65;;;3.80;;
64684;SDS011;51109;47.414;18.954;2023-03-01T03:41:11;8.77;;;3.60;;
64684;SDS011;51109;47.414;18.954;2023-03-01T03:43:38;12.85;;;4.30;;
64684;SDS011;51109;47.414;18.954;2023-03-01T03:46:06;8.95;;;4.43;;
64684;SDS011;51109;47.414;18.954;2023-03-01T03:48:36;7.43;;;3.75;;
64684;SDS011;51109;47.414;18.954;2023-03-01T03:51:06;10.75;;;4.18;;
64684;SDS011;51109;47.414;18.954;2023-03-01T03:53:35;11.07;;;4.35;;
64684;SDS011;51109;47.414;18.954;2023-03-01T03:56:01;10.65;;;4.95;;
64684;SDS011;51109;47.414;18.954;2023-03-01T03:58:27;10.90;;;4.47;;
64684;SDS011;51109;47.414;18.954;2023-03-01T04:00:54;11.13;;;4.10;;
64684;SDS011;51109;47.414;18.954;2023-03-01T04:03:21;8.93;;;4.07;;
64684;SDS011;51109;47.414;18.954;2023-03-01T04:05:48;8.43;;;4.13;;
64684;SDS011;51109;47.414;18.954;2023-03-01T04:08:21;11.85;;;3.80;;
64684;SDS011;51109;47.414;18.954;2023-03-01T04:10:50;8.63;;;3.45;;
64684;SDS011;51109;47.414;18.954;2023-03-01T04:13:21;7.32;;;4.40;;
64684;SDS011;51109;47.414;18.954;2023-03-01T04:15:51;8.90;;;3.67;;
64684;SDS011;51109;47.414;18.954;2023-03-01T04:18:18;9.07;;;3.92;;
64684;SDS011;51109;47.414;18.954;2023-03-01T04:20:46;7.10;;;3.65;;
64684;SDS011;51109;47.414;18.954;2023-03-01T04:23:13;8.82;;;4.10;;
64684;SDS011;51109;47.414;18.954;2023-03-01T04:25:47;8.25;;;4.13;;
64684;SDS011;51109;47.414;18.954;2023-03-01T04:30:52;7.03;;;3.78;;
64684;SDS011;51109;47.414;18.954;2023-03-01T04:33:19;8.23;;;4.15;;
64684;SDS011;51109;47.414;18.954;2023-03-01T04:35:45;8.50;;;4.70;;
64684;SDS011;51109;47.414;18.954;2023-03-01T04:38:15;6.55;;;4.13;;
64684;SDS011;51109;47.414;18.954;2023-03-01T04:40:42;9.80;;;4.60;;
64684;SDS011;51109;47.414;18.954;2023-03-01T04:43:08;9.93;;;4.68;;
64684;SDS011;51109;47.414;18.954;2023-03-01T04:45:35;12.00;;;4.10;;
64684;SDS011;51109;47.414;18.954;2023-03-01T04:48:02;8.50;;;4.43;;
64684;SDS011;51109;47.414;18.954;2023-03-01T04:50:29;5.78;;;3.95;;
64684;SDS011;51109;47.414;18.954;2023-03-01T04:52:55;11.77;;;4.70;;
64684;SDS011;51109;47.414;18.954;2023-03-01T04:55:25;8.75;;;4.07;;
64684;SDS011;51109;47.414;18.954;2023-03-01T04:57:53;12.00;;;5.32;;
64684;SDS011;51109;47.414;18.954;2023-03-01T05:00:20;10.00;;;5.63;;
64684;SDS011;51109;47.414;18.954;2023-03-01T05:02:52;9.82;;;4.30;;
64684;SDS011;51109;47.414;18.954;2023-03-01T05:05:30;9.57;;;4.13;;
64684;SDS011;51109;47.414;18.954;2023-03-01T05:08:02;9.05;;;5.43;;
64684;SDS011;51109;47.414;18.954;2023-03-01T05:10:33;9.73;;;4.60;;
64684;SDS011;51109;47.414;18.954;2023-03-01T05:13:01;7.32;;;4.07;;
64684;SDS011;51109;47.414;18.954;2023-03-01T05:15:28;8.00;;;4.55;;
64684;SDS011;51109;47.414;18.954;2023-03-01T05:17:56;7.65;;;4.35;;
64684;SDS011;51109;47.414;18.954;2023-03-01T05:20:27;9.48;;;4.13;;
64684;SDS011;51109;47.414;18.954;2023-03-01T05:22:55;8.25;;;3.53;;
64684;SDS011;51109;47.414;18.954;2023-03-01T05:25:24;10.07;;;4.03;;
64684;SDS011;51109;47.414;18.954;2023-03-01T05:27:50;7.15;;;3.72;;
64684;SDS011;51109;47.414;18.954;2023-03-01T05:30:17;11.52;;;4.57;;
64684;SDS011;51109;47.414;18.954;2023-03-01T05:32:48;10.07;;;4.43;;
64684;SDS011;51109;47.414;18.954;2023-03-01T05:35:20;11.15;;;4.68;;
64684;SDS011;51109;47.414;18.954;2023-03-01T05:37:47;10.55;;;3.85;;
64684;SDS011;51109;47.414;18.954;2023-03-01T05:40:17;8.40;;;3.30;;
64684;SDS011;51109;47.414;18.954;2023-03-01T05:42:47;7.32;;;3.70;;
64684;SDS011;51109;47.414;18.954;2023-03-01T05:45:18;9.07;;;3.47;;
64684;SDS011;51109;47.414;18.954;2023-03-01T05:47:45;9.25;;;4.13;;
64684;SDS011;51109;47.414;18.954;2023-03-01T05:50:13;9.07;;;4.32;;
64684;SDS011;51109;47.414;18.954;2023-03-01T05:52:47;7.05;;;3.40;;
64684;SDS011;51109;47.414;18.954;2023-03-01T05:55:21;11.68;;;4.45;;
64684;SDS011;51109;47.414;18.954;2023-03-01T05:57:47;7.85;;;3.65;;
64684;SDS011;51109;47.414;18.954;2023-03-01T06:00:15;8.80;;;3.63;;
64684;SDS011;51109;47.414;18.954;2023-03-01T06:02:43;9.82;;;4.53;;
64684;SDS011;51109;47.414;18.954;2023-03-01T06:05:10;14.77;;;3.88;;
64684;SDS011;51109;47.414;18.954;2023-03-01T06:07:37;11.68;;;4.45;;
64684;SDS011;51109;47.414;18.954;2023-03-01T06:10:05;7.35;;;3.90;;
64684;SDS011;51109;47.414;18.954;2023-03-01T06:12:32;9.95;;;3.67;;
64684;SDS011;51109;47.414;18.954;2023-03-01T06:15:03;9.93;;;3.95;;
64684;SDS011;51109;47.414;18.954;2023-03-01T06:17:30;10.82;;;4.13;;
64684;SDS011;51109;47.414;18.954;2023-03-01T06:19:58;7.75;;;4.20;;
64684;SDS011;51109;47.414;18.954;2023-03-01T06:22:24;7.30;;;3.60;;
64684;SDS011;51109;47.414;18.954;2023-03-01T06:24:50;7.05;;;4.65;;
64684;SDS011;51109;47.414;18.954;2023-03-01T06:27:15;7.55;;;3.95;;
64684;SDS011;51109;47.414;18.954;2023-03-01T06:29:42;7.13;;;3.25;;
64684;SDS011;51109;47.414;18.954;2023-03-01T06:32:08;8.57;;;4.43;;
64684;SDS011;51109;47.414;18.954;2023-03-01T06:34:34;6.95;;;3.95;;
64684;SDS011;51109;47.414;18.954;2023-03-01T06:36:59;11.18;;;4.45;;
64684;SDS011;51109;47.414;18.954;2023-03-01T06:39:27;9.43;;;3.60;;
64684;SDS011;51109;47.414;18.954;2023-03-01T06:41:53;9.88;;;3.95;;
64684;SDS011;51109;47.414;18.954;2023-03-01T06:44:19;8.88;;;4.30;;
64684;SDS011;51109;47.414;18.954;2023-03-01T06:46:45;10.70;;;4.28;;
64684;SDS011;51109;47.414;18.954;2023-03-01T06:49:12;12.90;;;4.53;;
64684;SDS011;51109;47.414;18.954;2023-03-01T06:51:38;9.82;;;4.72;;
64684;SDS011;51109;47.414;18.954;2023-03-01T06:54:04;11.20;;;4.53;;
64684;SDS011;51109;47.414;18.954;2023-03-01T06:56:31;15.27;;;4.22;;
64684;SDS011;51109;47.414;18.954;2023-03-01T06:58:57;9.18;;;3.90;;
64684;SDS011;51109;47.414;18.954;2023-03-01T07:01:23;9.60;;;4.10;;
64684;SDS011;51109;47.414;18.954;2023-03-01T07:03:49;8.55;;;4.35;;
64684;SDS011;51109;47.414;18.954;2023-03-01T07:06:15;13.48;;;4.72;;
64684;SDS011;51109;47.414;18.954;2023-03-01T07:08:41;11.00;;;4.78;;
64684;SDS011;51109;47.414;18.954;2023-03-01T07:11:07;14.00;;;5.13;;
64684;SDS011;51109;47.414;18.954;2023-03-01T07:13:33;10.48;;;4.60;;
64684;SDS011;51109;47.414;18.954;2023-03-01T07:15:59;12.48;;;4.78;;
64684;SDS011;51109;47.414;18.954;2023-03-01T07:18:25;7.38;;;3.88;;
64684;SDS011;51109;47.414;18.954;2023-03-01T07:20:51;9.43;;;4.97;;
64684;SDS011;51109;47.414;18.954;2023-03-01T07:23:18;11.32;;;5.05;;
64684;SDS011;51109;47.414;18.954;2023-03-01T07:25:44;13.35;;;5.00;;
64684;SDS011;51109;47.414;18.954;2023-03-01T07:28:16;10.02;;;4.25;;
64684;SDS011;51109;47.414;18.954;2023-03-01T07:30:42;9.68;;;4.50;;
64684;SDS011;51109;47.414;18.954;2023-03-01T07:33:08;7.03;;;3.70;;
64684;SDS011;51109;47.414;18.954;2023-03-01T07:35:33;8.07;;;4.88;;
64684;SDS011;51109;47.414;18.954;2023-03-01T07:38:00;11.65;;;4.57;;
64684;SDS011;51109;47.414;18.954;2023-03-01T07:40:26;10.00;;;4.63;;
64684;SDS011;51109;47.414;18.954;2023-03-01T07:42:56;10.75;;;4.82;;
64684;SDS011;51109;47.414;18.954;2023-03-01T07:45:23;8.07;;;4.68;;
64684;SDS011;51109;47.414;18.954;2023-03-01T07:47:52;6.60;;;3.67;;
64684;SDS011;51109;47.414;18.954;2023-03-01T07:50:19;7.47;;;3.60;;
64684;SDS011;51109;47.414;18.954;2023-03-01T07:52:47;8.98;;;4.00;;
64684;SDS011;51109;47.414;18.954;2023-03-01T07:55:15;10.90;;;4.55;;
64684;SDS011;51109;47.414;18.954;2023-03-01T07:57:41;11.18;;;4.90;;
64684;SDS011;51109;47.414;18.954;2023-03-01T08:00:09;9.60;;;4.25;;
64684;SDS011;51109;47.414;18.954;2023-03-01T08:02:42;13.02;;;4.88;;
64684;SDS011;51109;47.414;18.954;2023-03-01T08:05:09;7.18;;;3.80;;
64684;SDS011;51109;47.414;18.954;2023-03-01T08:07:35;6.75;;;3.78;;
64684;SDS011;51109;47.414;18.954;2023-03-01T08:10:03;11.43;;;3.67;;
64684;SDS011;51109;47.414;18.954;2023-03-01T08:12:31;10.48;;;4.72;;
64684;SDS011;51109;47.414;18.954;2023-03-01T08:14:57;12.77;;;4.95;;
64684;SDS011;51109;47.414;18.954;2023-03-01T08:17:22;9.05;;;4.70;;
64684;SDS011;51109;47.414;18.954;2023-03-01T08:19:49;9.38;;;4.18;;
64684;SDS011;51109;47.414;18.954;2023-03-01T08:22:15;11.75;;;4.80;;
64684;SDS011;51109;47.414;18.954;2023-03-01T08:24:41;7.35;;;4.45;;
64684;SDS011;51109;47.414;18.954;2023-03-01T08:27:07;6.95;;;4.38;;
64684;SDS011;51109;47.414;18.954;2023-03-01T08:29:35;10.57;;;4.68;;
64684;SDS011;51109;47.414;18.954;2023-03-01T08:32:01;9.02;;;4.28;;
64684;SDS011;51109;47.414;18.954;2023-03-01T08:34:27;5.90;;;3.75;;
64684;SDS011;51109;47.414;18.954;2023-03-01T08:36:52;11.63;;;4.40;;
64684;SDS011;51109;47.414;18.954;2023-03-01T08:39:19;9.02;;;4.50;;
64684;SDS011;51109;47.414;18.954;2023-03-01T08:41:46;12.15;;;3.70;;
64684;SDS011;51109;47.414;18.954;2023-03-01T08:44:12;5.55;;;3.15;;
64684;SDS011;51109;47.414;18.954;2023-03-01T08:46:42;12.25;;;5.50;;
64684;SDS011;51109;47.414;18.954;2023-03-01T08:49:10;5.25;;;3.65;;
64684;SDS011;51109;47.414;18.954;2023-03-01T08:51:38;11.23;;;4.63;;
64684;SDS011;51109;47.414;18.954;2023-03-01T08:54:18;7.15;;;3.78;;
64684;SDS011;51109;47.414;18.954;2023-03-01T08:56:45;12.07;;;5.03;;
64684;SDS011;51109;47.414;18.954;2023-03-01T08:59:12;9.77;;;4.25;;
64684;SDS011;51109;47.414;18.954;2023-03-01T09:01:39;9.32;;;4.65;;
64684;SDS011;51109;47.414;18.954;2023-03-01T09:04:08;9.93;;;4.05;;
64684;SDS011;51109;47.414;18.954;2023-03-01T09:06:35;15.05;;;4.68;;
64684;SDS011;51109;47.414;18.954;2023-03-01T09:09:03;5.88;;;3.55;;
64684;SDS011;51109;47.414;18.954;2023-03-01T09:11:30;10.15;;;5.28;;
64684;SDS011;51109;47.414;18.954;2023-03-01T09:13:56;8.50;;;4.60;;
64684;SDS011;51109;47.414;18.954;2023-03-01T09:16:22;8.57;;;4.90;;
64684;SDS011;51109;47.414;18.954;2023-03-01T09:18:49;9.40;;;4.22;;
64684;SDS011;51109;47.414;18.954;2023-03-01T09:21:17;12.40;;;5.55;;
64684;SDS011;51109;47.414;18.954;2023-03-01T09:23:45;11.65;;;5.55;;
64684;SDS011;51109;47.414;18.954;2023-03-01T09:26:16;12.63;;;4.65;;
64684;SDS011;51109;47.414;18.954;2023-03-01T09:28:45;8.48;;;4.32;;
64684;SDS011;51109;47.414;18.954;2023-03-01T09:31:12;8.10;;;4.53;;
64684;SDS011;51109;47.414;18.954;2023-03-01T09:33:39;9.38;;;5.40;;
64684;SDS011;51109;47.414;18.954;2023-03-01T09:36:09;10.25;;;4.90;;
64684;SDS011;51109;47.414;18.954;2023-03-01T09:38:37;8.82;;;4.80;;
64684;SDS011;51109;47.414;18.954;2023-03-01T09:41:11;9.27;;;4.65;;
64684;SDS011;51109;47.414;18.954;2023-03-01T09:43:48;10.95;;;4.88;;
64684;SDS011;51109;47.414;18.954;2023-03-01T09:46:19;10.13;;;3.90;;
64684;SDS011;51109;47.414;18.954;2023-03-01T09:54:49;9.18;;;4.38;;
64684;SDS011;51109;47.414;18.954;2023-03-01T10:03:08;9.73;;;4.57;;
64684;SDS011;51109;47.414;18.954;2023-03-01T10:06:00;8.02;;;4.95;;
64684;SDS011;51109;47.414;18.954;2023-03-01T10:11:28;11.38;;;5.68;;
64684;SDS011;51109;47.414;18.954;2023-03-01T10:16:55;8.32;;;4.45;;
64684;SDS011;51109;47.414;18.954;2023-03-01T10:19:56;12.23;;;5.13;;
64684;SDS011;51109;47.414;18.954;2023-03-01T10:22:51;11.70;;;4.60;;
64684;SDS011;51109;47.414;18.954;2023-03-01T10:27:53;10.88;;;4.35;;
64684;SDS011;51109;47.414;18.954;2023-03-01T10:33:15;9.20;;;4.60;;
64684;SDS011;51109;47.414;18.954;2023-03-01T10:38:14;13.57;;;4.80;;
64684;SDS011;51109;47.414;18.954;2023-03-01T10:40:55;10.40;;;5.82;;
64684;SDS011;51109;47.414;18.954;2023-03-01T10:43:23;12.05;;;5.22;;
64684;SDS011;51109;47.414;18.954;2023-03-01T10:45:57;9.38;;;4.97;;
64684;SDS011;51109;47.414;18.954;2023-03-01T10:48:24;10.93;;;5.57;;
64684;SDS011;51109;47.414;18.954;2023-03-01T10:53:37;12.30;;;5.47;;
64684;SDS011;51109;47.414;18.954;2023-03-01T11:01:33;10.27;;;5.05;;
64684;SDS011;51109;47.414;18.954;2023-03-01T11:06:33;8.57;;;4.95;;
64684;SDS011;51109;47.414;18.954;2023-03-01T11:14:16;11.02;;;4.50;;
64684;SDS011;51109;47.414;18.954;2023-03-01T11:16:48;5.30;;;3.55;;
64684;SDS011;51109;47.414;18.954;2023-03-01T11:19:26;8.52;;;3.28;;
64684;SDS011;51109;47.414;18.954;2023-03-01T11:21:54;9.57;;;4.60;;
64684;SDS011;51109;47.414;18.954;2023-03-01T11:24:23;8.32;;;3.83;;
64684;SDS011;51109;47.414;18.954;2023-03-01T11:26:54;9.43;;;4.00;;
64684;SDS011;51109;47.414;18.954;2023-03-01T11:29:25;5.88;;;3.95;;
64684;SDS011;51109;47.414;18.954;2023-03-01T11:31:57;9.73;;;4.50;;
64684;SDS011;51109;47.414;18.954;2023-03-01T11:34:47;5.80;;;3.15;;
64684;SDS011;51109;47.414;18.954;2023-03-01T11:37:33;8.55;;;4.15;;
64684;SDS011;51109;47.414;18.954;2023-03-01T11:40:20;6.15;;;3.42;;
64684;SDS011;51109;47.414;18.954;2023-03-01T11:42:59;6.50;;;3.25;;
64684;SDS011;51109;47.414;18.954;2023-03-01T11:50:58;5.95;;;3.55;;
64684;SDS011;51109;47.414;18.954;2023-03-01T12:01:50;7.68;;;3.47;;
64684;SDS011;51109;47.414;18.954;2023-03-01T12:16:14;6.75;;;3.88;;
64684;SDS011;51109;47.414;18.954;2023-03-01T12:27:07;9.30;;;3.78;;
64684;SDS011;51109;47.414;18.954;2023-03-01T12:35:11;7.50;;;3.58;;
64684;SDS011;51109;47.414;18.954;2023-03-01T12:49:14;4.50;;;3.38;;
64684;SDS011;51109;47.414;18.954;2023-03-01T12:51:50;7.57;;;3.65;;
64684;SDS011;51109;47.414;18.954;2023-03-01T12:54:37;4.22;;;2.63;;
64684;SDS011;51109;47.414;18.954;2023-03-01T12:57:08;3.63;;;2.25;;
64684;SDS011;51109;47.414;18.954;2023-03-01T13:00:06;4.93;;;2.92;;
64684;SDS011;51109;47.414;18.954;2023-03-01T13:03:06;5.35;;;2.85;;
64684;SDS011;51109;47.414;18.954;2023-03-01T13:08:44;4.63;;;3.45;;
64684;SDS011;51109;47.414;18.954;2023-03-01T13:11:21;4.22;;;2.03;;
64684;SDS011;51109;47.414;18.954;2023-03-01T13:13:49;4.75;;;2.72;;
64684;SDS011;51109;47.414;18.954;2023-03-01T13:18:46;4.50;;;2.80;;
64684;SDS011;51109;47.414;18.954;2023-03-01T13:21:12;4.13;;;3.00;;
64684;SDS011;51109;47.414;18.954;2023-03-01T13:23:55;4.25;;;2.58;;
64684;SDS011;51109;47.414;18.954;2023-03-01T13:26:21;3.35;;;2.20;;
64684;SDS011;51109;47.414;18.954;2023-03-01T13:28:54;3.63;;;2.00;;
64684;SDS011;51109;47.414;18.954;2023-03-01T13:33:51;5.25;;;2.92;;
64684;SDS011;51109;47.414;18.954;2023-03-01T13:38:58;5.25;;;2.92;;
64684;SDS011;51109;47.414;18.954;2023-03-01T13:41:52;3.60;;;2.40;;
64684;SDS011;51109;47.414;18.954;2023-03-01T13:46:52;5.60;;;2.45;;
64684;SDS011;51109;47.414;18.954;2023-03-01T13:49:21;3.65;;;2.13;;
64684;SDS011;51109;47.414;18.954;2023-03-01T13:51:50;3.55;;;2.20;;
64684;SDS011;51109;47.414;18.954;2023-03-01T13:54:21;4.15;;;1.90;;
64684;SDS011;51109;47.414;18.954;2023-03-01T13:56:53;3.78;;;1.92;;
64684;SDS011;51109;47.414;18.954;2023-03-01T13:59:21;3.55;;;2.50;;
64684;SDS011;51109;47.414;18.954;2023-03-01T14:01:58;3.50;;;2.20;;
64684;SDS011;51109;47.414;18.954;2023-03-01T14:04:29;6.15;;;2.40;;
64684;SDS011;51109;47.414;18.954;2023-03-01T14:09:41;3.80;;;2.30;;
64684;SDS011;51109;47.414;18.954;2023-03-01T14:20:45;3.63;;;2.53;;
64684;SDS011;51109;47.414;18.954;2023-03-01T14:23:22;4.53;;;2.50;;
64684;SDS011;51109;47.414;18.954;2023-03-01T14:25:50;6.80;;;3.30;;
64684;SDS011;51109;47.414;18.954;2023-03-01T14:28:19;5.35;;;2.72;;
64684;SDS011;51109;47.414;18.954;2023-03-01T14:31:02;6.30;;;2.58;;
64684;SDS011;51109;47.414;18.954;2023-03-01T14:33:56;4.72;;;2.35;;
64684;SDS011;51109;47.414;18.954;2023-03-01T14:36:29;6.10;;;3.38;;
64684;SDS011;51109;47.414;18.954;2023-03-01T14:38:57;5.93;;;2.70;;
64684;SDS011;51109;47.414;18.954;2023-03-01T14:41:32;4.80;;;2.78;;
64684;SDS011;51109;47.414;18.954;2023-03-01T14:44:02;7.85;;;3.10;;
64684;SDS011;51109;47.414;18.954;2023-03-01T14:49:14;6.47;;;2.65;;
64684;SDS011;51109;47.414;18.954;2023-03-01T14:52:20;3.15;;;2.70;;
64684;SDS011;51109;47.414;18.954;2023-03-01T14:54:47;4.78;;;2.60;;
64684;SDS011;51109;47.414;18.954;2023-03-01T14:57:16;4.18;;;2.47;;
64684;SDS011;51109;47.414;18.954;2023-03-01T14:59:48;6.68;;;2.40;;
64684;SDS011;51109;47.414;18.954;2023-03-01T15:02:17;3.70;;;2.05;;
64684;SDS011;51109;47.414;18.954;2023-03-01T15:04:46;3.60;;;2.17;;
64684;SDS011;51109;47.414;18.954;2023-03-01T15:07:14;2.47;;;1.90;;
64684;SDS011;51109;47.414;18.954;2023-03-01T15:09:42;3.83;;;2.38;;
64684;SDS011;51109;47.414;18.954;2023-03-01T15:14:53;4.43;;;2.78;;
64684;SDS011;51109;47.414;18.954;2023-03-01T15:17:28;2.58;;;2.10;;
64684;SDS011;51109;47.414;18.954;2023-03-01T15:20:02;3.70;;;2.13;;
64684;SDS011;51109;47.414;18.954;2023-03-01T15:22:52;3.78;;;2.25;;
64684;SDS011;51109;47.414;18.954;2023-03-01T15:25:21;4.13;;;2.35;;
64684;SDS011;51109;47.414;18.954;2023-03-01T15:27:52;4.15;;;2.10;;
64684;SDS011;51109;47.414;18.954;2023-03-01T15:33:29;2.95;;;2.28;;
64684;SDS011;51109;47.414;18.954;2023-03-01T15:35:51;3.67;;;2.25;;
64684;SDS011;51109;47.414;18.954;2023-03-01T15:40:50;2.95;;;1.88;;
64684;SDS011;51109;47.414;18.954;2023-03-01T15:46:33;3.22;;;2.10;;
64684;SDS011;51109;47.414;18.954;2023-03-01T15:49:01;2.80;;;1.80;;
64684;SDS011;51109;47.414;18.954;2023-03-01T15:51:33;5.82;;;2.60;;
64684;SDS011;51109;47.414;18.954;2023-03-01T15:54:05;3.08;;;2.20;;
64684;SDS011;51109;47.414;18.954;2023-03-01T15:56:37;4.28;;;2.10;;
64684;SDS011;51109;47.414;18.954;2023-03-01T15:59:03;3.50;;;2.40;;
64684;SDS011;51109;47.414;18.954;2023-03-01T16:01:29;3.42;;;2.47;;
64684;SDS011;51109;47.414;18.954;2023-03-01T16:03:56;4.63;;;2.38;;
64684;SDS011;51109;47.414;18.954;2023-03-01T16:06:23;2.05;;;1.85;;
64684;SDS011;51109;47.414;18.954;2023-03-01T16:08:49;3.83;;;1.80;;
64684;SDS011;51109;47.414;18.954;2023-03-01T16:11:16;4.35;;;2.53;;
64684;SDS011;51109;47.414;18.954;2023-03-01T16:13:43;4.78;;;2.83;;
64684;SDS011;51109;47.414;18.954;2023-03-01T16:16:10;1.90;;;1.80;;
64684;SDS011;51109;47.414;18.954;2023-03-01T16:18:42;4.53;;;2.50;;
64684;SDS011;51109;47.414;18.954;2023-03-01T16:21:20;9.75;;;3.10;;
64684;SDS011;51109;47.414;18.954;2023-03-01T16:23:49;5.25;;;2.13;;
64684;SDS011;51109;47.414;18.954;2023-03-01T16:26:16;8.55;;;2.30;;
64684;SDS011;51109;47.414;18.954;2023-03-01T16:28:44;4.15;;;2.40;;
64684;SDS011;51109;47.414;18.954;2023-03-01T16:31:11;6.88;;;2.50;;
64684;SDS011;51109;47.414;18.954;2023-03-01T16:33:40;4.80;;;2.80;;
64684;SDS011;51109;47.414;18.954;2023-03-01T16:36:08;6.35;;;3.22;;
64684;SDS011;51109;47.414;18.954;2023-03-01T16:38:35;11.70;;;4.32;;
64684;SDS011;51109;47.414;18.954;2023-03-01T16:41:01;9.20;;;4.22;;
64684;SDS011;51109;47.414;18.954;2023-03-01T16:43:27;12.10;;;4.82;;
64684;SDS011;51109;47.414;18.954;2023-03-01T16:45:55;16.40;;;7.35;;
64684;SDS011;51109;47.414;18.954;2023-03-01T16:48:21;10.25;;;5.70;;
64684;SDS011;51109;47.414;18.954;2023-03-01T16:51:00;9.57;;;5.00;;
64684;SDS011;51109;47.414;18.954;2023-03-01T16:53:27;4.20;;;3.30;;
64684;SDS011;51109;47.414;18.954;2023-03-01T16:55:54;6.97;;;3.40;;
64684;SDS011;51109;47.414;18.954;2023-03-01T16:58:21;5.68;;;3.28;;
64684;SDS011;51109;47.414;18.954;2023-03-01T17:00:53;5.70;;;3.10;;
64684;SDS011;51109;47.414;18.954;2023-03-01T17:03:20;6.18;;;2.85;;
64684;SDS011;51109;47.414;18.954;2023-03-01T17:05:46;6.78;;;3.38;;
64684;SDS011;51109;47.414;18.954;2023-03-01T17:08:12;8.70;;;3.33;;
64684;SDS011;51109;47.414;18.954;2023-03-01T17:10:39;8.50;;;4.03;;
64684;SDS011;51109;47.414;18.954;2023-03-01T17:13:07;7.40;;;3.70;;
64684;SDS011;51109;47.414;18.954;2023-03-01T17:15:34;10.02;;;4.22;;
64684;SDS011;51109;47.414;18.954;2023-03-01T17:18:03;6.65;;;4.00;;
64684;SDS011;51109;47.414;18.954;2023-03-01T17:20:29;7.90;;;3.78;;
64684;SDS011;51109;47.414;18.954;2023-03-01T17:22:55;5.30;;;3.47;;